createdAt,value
2023-03-10T00:00:39.499Z,0.70
2023-03-10T00:03:06.408Z,0.80
2023-03-10T00:05:33.211Z,0.82
2023-03-10T00:08:00.121Z,0.60
2023-03-10T00:10:26.942Z,0.57
2023-03-10T00:12:53.669Z,0.60
2023-03-10T00:15:20.376Z,0.73
2023-03-10T00:17:50.048Z,0.70
2023-03-10T00:20:17.131Z,0.60
2023-03-10T00:22:43.852Z,0.73
2023-03-10T00:25:11.476Z,0.80
2023-03-10T00:27:38.248Z,0.60
2023-03-10T00:30:05.655Z,0.60
2023-03-10T00:32:35.893Z,0.60
2023-03-10T00:35:05.276Z,0.52
2023-03-10T00:37:32.054Z,0.70
2023-03-10T00:39:58.940Z,0.50
2023-03-10T00:42:25.641Z,0.60
2023-03-10T00:44:52.496Z,0.55
2023-03-10T00:47:19.250Z,0.60
2023-03-10T00:49:47.993Z,0.50
2023-03-10T00:52:14.819Z,0.60
2023-03-10T00:54:42.050Z,0.67
2023-03-10T00:57:09.347Z,0.60
2023-03-10T00:59:49.324Z,0.60
2023-03-10T01:02:18.220Z,0.40
2023-03-10T01:04:45.188Z,0.65
2023-03-10T01:07:12.034Z,0.52
2023-03-10T01:09:38.732Z,0.50
2023-03-10T01:12:05.862Z,0.50
2023-03-10T01:14:32.579Z,0.50
2023-03-10T01:16:59.474Z,0.60
2023-03-10T01:19:26.258Z,0.60
2023-03-10T01:21:52.977Z,0.60
2023-03-10T01:24:19.841Z,0.70
2023-03-10T01:26:46.611Z,0.50
2023-03-10T01:29:13.451Z,0.60
2023-03-10T01:31:41.846Z,0.43
2023-03-10T01:34:08.963Z,0.47
2023-03-10T01:36:36.092Z,0.50
2023-03-10T01:39:02.921Z,0.60
2023-03-10T01:41:29.787Z,0.52
2023-03-10T01:43:57.573Z,0.43
2023-03-10T01:46:27.490Z,0.50
2023-03-10T01:48:59.430Z,0.70
2023-03-10T01:51:27.554Z,0.50
2023-03-10T01:53:54.541Z,0.52
2023-03-10T01:56:21.376Z,0.50
2023-03-10T01:58:49.525Z,0.50
2023-03-10T02:01:17.993Z,0.68
2023-03-10T02:04:04.426Z,0.50
2023-03-10T02:06:32.609Z,0.60
2023-03-10T02:09:01.732Z,0.40
2023-03-10T02:11:29.436Z,0.50
2023-03-10T02:13:56.545Z,0.40
2023-03-10T02:16:24.008Z,0.60
2023-03-10T02:18:51.001Z,0.50
2023-03-10T02:21:39.258Z,0.40
2023-03-10T02:24:22.390Z,0.60
2023-03-10T02:27:02.792Z,0.50
2023-03-10T02:29:35.552Z,0.50
2023-03-10T02:32:04.611Z,0.57
2023-03-10T02:34:31.519Z,0.50
2023-03-10T02:36:58.392Z,0.68
2023-03-10T02:39:25.275Z,0.45
2023-03-10T02:41:52.916Z,0.40
2023-03-10T02:44:23.425Z,0.47
2023-03-10T02:46:51.026Z,0.60
2023-03-10T02:49:21.634Z,0.50
2023-03-10T02:51:48.477Z,0.45
2023-03-10T02:54:17.774Z,0.40
2023-03-10T02:56:45.412Z,0.60
2023-03-10T02:59:13.218Z,0.40
2023-03-10T03:01:45.173Z,0.90
2023-03-10T03:04:12.321Z,0.47
2023-03-10T03:06:40.209Z,0.40
2023-03-10T03:09:07.641Z,0.80
2023-03-10T03:11:35.193Z,0.50
2023-03-10T03:14:02.760Z,0.70
2023-03-10T03:16:30.335Z,0.63
2023-03-10T03:19:01.050Z,0.40
2023-03-10T03:21:28.752Z,0.68
2023-03-10T03:23:55.741Z,0.50
2023-03-10T03:26:25.473Z,0.60
2023-03-10T03:28:57.063Z,0.50
2023-03-10T03:31:27.834Z,0.68
2023-03-10T03:34:05.137Z,0.40
2023-03-10T03:36:31.949Z,0.57
2023-03-10T03:38:58.691Z,0.47
2023-03-10T03:41:28.509Z,0.73
2023-03-10T03:43:55.396Z,0.80
2023-03-10T03:46:22.233Z,19.42
2023-03-10T03:48:49.536Z,109.00
2023-03-10T03:51:16.558Z,148.87
2023-03-10T03:53:43.441Z,329.05
2023-03-10T03:56:10.273Z,221.60
2023-03-10T03:58:38.137Z,325.25
2023-03-10T04:01:05.345Z,387.02
2023-03-10T04:03:39.193Z,490.40
2023-03-10T04:06:09.317Z,528.97
2023-03-10T04:08:36.916Z,519.22
2023-03-10T04:11:04.509Z,349.10
2023-03-10T04:13:33.058Z,497.77
2023-03-10T04:16:00.820Z,499.25
2023-03-10T04:18:33.266Z,439.42
2023-03-10T04:21:01.040Z,385.02
2023-03-10T04:23:28.256Z,196.20
2023-03-10T04:25:55.743Z,432.75
2023-03-10T04:28:22.569Z,394.13
2023-03-10T04:30:50.614Z,496.80
2023-03-10T04:33:20.394Z,504.10
2023-03-10T04:35:51.267Z,556.03
2023-03-10T04:38:19.927Z,571.08
2023-03-10T04:40:54.013Z,552.40
2023-03-10T04:43:21.426Z,585.00
2023-03-10T04:45:48.729Z,525.88
2023-03-10T04:48:16.022Z,547.75
2023-03-10T04:50:43.219Z,437.75
2023-03-10T04:53:10.809Z,368.58
2023-03-10T04:55:38.230Z,342.73
2023-03-10T04:58:05.799Z,370.83
2023-03-10T05:00:32.951Z,304.02
2023-03-10T05:03:00.599Z,180.43
2023-03-10T05:05:27.391Z,334.42
2023-03-10T05:07:54.076Z,325.98
2023-03-10T05:10:20.800Z,388.95
2023-03-10T05:12:47.581Z,487.35
2023-03-10T05:15:14.401Z,535.90
2023-03-10T05:17:41.453Z,379.00
2023-03-10T05:20:09.699Z,430.80
2023-03-10T05:22:38.457Z,603.90
2023-03-10T05:25:10.221Z,552.90
2023-03-10T05:27:38.849Z,625.00
2023-03-10T05:30:07.816Z,772.53
2023-03-10T05:32:35.872Z,754.55
2023-03-10T05:35:03.721Z,737.40
2023-03-10T05:37:36.831Z,668.80
2023-03-10T05:40:04.121Z,921.03
2023-03-10T05:42:31.033Z,860.45
2023-03-10T05:44:57.891Z,875.38
2023-03-10T05:47:24.847Z,787.20
2023-03-10T05:49:51.797Z,596.90
2023-03-10T05:52:18.972Z,874.30
2023-03-10T05:54:46.416Z,950.63
2023-03-10T05:57:14.602Z,983.90
2023-03-10T05:59:42.754Z,985.05
2023-03-10T06:02:10.097Z,997.63
2023-03-10T06:04:37.165Z,999.90
2023-03-10T06:09:32.609Z,994.73
2023-03-10T06:14:26.673Z,999.90
2023-03-10T06:34:04.869Z,925.70
2023-03-10T07:01:08.818Z,226.00
2023-03-10T07:03:36.703Z,264.92
2023-03-10T07:08:31.741Z,106.23
2023-03-10T07:10:58.519Z,103.38
2023-03-10T07:13:25.264Z,988.42
2023-03-10T07:15:52.078Z,918.28
2023-03-10T07:18:19.055Z,906.75
2023-03-10T07:20:46.017Z,556.95
2023-03-10T07:23:13.628Z,737.25
2023-03-10T07:25:40.456Z,579.30
2023-03-10T07:28:08.056Z,465.92
2023-03-10T07:30:35.232Z,426.90
2023-03-10T07:33:01.962Z,329.95
2023-03-10T07:35:28.811Z,449.90
2023-03-10T07:37:55.655Z,578.45
2023-03-10T07:40:24.863Z,601.50
2023-03-10T07:42:55.060Z,695.75
2023-03-10T07:45:23.934Z,641.08
2023-03-10T07:47:51.702Z,602.07
2023-03-10T07:50:19.164Z,572.05
2023-03-10T07:52:46.076Z,623.78
2023-03-10T07:55:13.205Z,600.13
2023-03-10T07:57:40.162Z,673.95
2023-03-10T08:00:07.702Z,616.92
2023-03-10T08:02:41.141Z,545.58
2023-03-10T08:05:09.384Z,572.60
2023-03-10T08:07:37.170Z,592.47
2023-03-10T08:10:04.375Z,566.13
2023-03-10T08:12:31.069Z,616.25
2023-03-10T08:14:57.929Z,635.03
2023-03-10T08:17:30.572Z,630.53
2023-03-10T08:19:58.508Z,655.60
2023-03-10T08:22:25.831Z,696.60
2023-03-10T08:24:52.760Z,698.20
2023-03-10T08:27:19.785Z,307.77
2023-03-10T08:29:46.661Z,261.70
2023-03-10T08:32:13.402Z,323.30
2023-03-10T08:34:40.284Z,321.70
2023-03-10T08:37:07.121Z,343.70
2023-03-10T08:39:33.865Z,312.67
2023-03-10T08:42:00.648Z,324.23
2023-03-10T08:44:27.494Z,257.88
2023-03-10T08:46:54.464Z,208.02
2023-03-10T08:49:22.268Z,227.80
2023-03-10T08:51:49.516Z,642.47
2023-03-10T08:54:19.476Z,229.25
2023-03-10T08:56:46.552Z,567.78
2023-03-10T08:59:13.471Z,780.33
2023-03-10T09:01:40.569Z,161.00
2023-03-10T09:04:08.725Z,153.45
2023-03-10T09:06:35.852Z,158.43
2023-03-10T09:09:05.051Z,190.73
2023-03-10T09:11:36.389Z,709.25
2023-03-10T09:14:05.046Z,271.70
2023-03-10T09:16:32.079Z,234.68
2023-03-10T09:19:00.135Z,247.70
2023-03-10T09:21:28.434Z,255.70
2023-03-10T09:23:55.434Z,229.18
2023-03-10T09:26:22.262Z,229.95
2023-03-10T09:28:50.905Z,199.88
2023-03-10T09:31:24.487Z,218.90
2023-03-10T09:33:51.327Z,177.77
2023-03-10T09:36:18.784Z,230.50
2023-03-10T09:38:45.682Z,238.40
2023-03-10T09:41:38.486Z,245.37
2023-03-10T09:44:12.473Z,584.72
2023-03-10T10:27:40.685Z,978.40
2023-03-10T11:06:30.063Z,0.40
2023-03-10T11:09:18.101Z,0.40
2023-03-10T11:11:52.016Z,0.37
2023-03-10T11:14:56.550Z,0.45
2023-03-10T11:17:44.348Z,0.30
2023-03-10T11:20:30.005Z,0.30
2023-03-10T11:23:34.054Z,0.37
2023-03-10T11:26:03.780Z,0.30
2023-03-10T11:29:05.058Z,0.40
2023-03-10T11:32:01.241Z,0.30
2023-03-10T11:34:45.999Z,0.40
2023-03-10T11:37:26.106Z,0.50
2023-03-10T11:40:21.825Z,0.30
2023-03-10T11:43:01.124Z,0.40
2023-03-10T11:45:37.453Z,0.40
2023-03-10T11:48:32.548Z,0.30
2023-03-10T11:51:04.417Z,0.47
2023-03-10T11:53:54.101Z,0.40
2023-03-10T11:56:23.342Z,0.57
2023-03-10T11:58:58.853Z,0.60
2023-03-10T12:01:34.376Z,0.60
2023-03-10T12:04:30.136Z,0.52
2023-03-10T12:07:19.574Z,0.55
2023-03-10T12:09:54.175Z,0.38
2023-03-10T12:12:27.240Z,1.10
2023-03-10T12:14:55.064Z,0.88
2023-03-10T12:17:21.881Z,0.70
2023-03-10T12:20:17.392Z,0.50
2023-03-10T12:22:51.352Z,0.52
2023-03-10T12:25:30.147Z,0.52
2023-03-10T12:28:30.793Z,0.40
2023-03-10T12:31:02.250Z,0.60
2023-03-10T12:33:37.429Z,0.60
2023-03-10T12:36:09.297Z,0.43
2023-03-10T12:38:47.859Z,0.43
2023-03-10T12:42:00.770Z,0.43
2023-03-10T12:44:43.341Z,0.70
2023-03-10T12:47:35.899Z,0.47
2023-03-10T12:50:22.752Z,0.50
2023-03-10T12:53:00.363Z,0.50
2023-03-10T12:55:28.711Z,0.73
2023-03-10T12:58:27.888Z,0.70
2023-03-10T13:01:01.698Z,348.55
2023-03-10T13:03:41.801Z,883.35
2023-03-10T13:08:47.190Z,41.67
2023-03-10T13:11:38.482Z,215.65
2023-03-10T13:14:15.207Z,750.33
2023-03-10T13:16:53.391Z,979.85
2023-03-10T13:19:22.421Z,999.90
2023-03-10T13:29:34.665Z,999.90
2023-03-10T13:34:30.198Z,999.90
2023-03-10T13:37:07.419Z,980.30
2023-03-10T13:39:34.430Z,952.03
2023-03-10T13:44:39.925Z,915.83
2023-03-10T13:47:34.568Z,999.90
2023-03-10T13:50:02.890Z,987.30
2023-03-10T13:52:31.564Z,956.13
2023-03-10T14:00:15.785Z,406.40
2023-03-10T14:02:44.986Z,0.55
2023-03-10T14:05:37.090Z,0.57
2023-03-10T14:08:04.531Z,0.70
2023-03-10T14:10:31.438Z,0.60
2023-03-10T14:12:58.371Z,0.57
2023-03-10T14:15:26.524Z,0.60
2023-03-10T14:18:08.309Z,0.80
2023-03-10T14:20:43.445Z,0.60
2023-03-10T14:23:19.474Z,0.50
2023-03-10T14:25:48.324Z,0.40
2023-03-10T14:28:21.772Z,0.52
2023-03-10T14:30:48.694Z,0.50
2023-03-10T14:33:16.542Z,0.80
2023-03-10T14:35:45.808Z,0.60
2023-03-10T14:38:13.019Z,0.50
2023-03-10T14:40:46.004Z,0.45
2023-03-10T14:43:22.250Z,0.40
2023-03-10T14:45:50.832Z,0.50
2023-03-10T14:48:20.669Z,0.40
2023-03-10T14:50:48.376Z,0.65
2023-03-10T14:53:18.016Z,0.73
2023-03-10T14:55:47.729Z,0.57
2023-03-10T14:58:36.274Z,0.52
2023-03-10T15:01:03.207Z,0.50
2023-03-10T15:03:30.347Z,0.40
2023-03-10T15:05:57.089Z,0.47
2023-03-10T15:08:24.404Z,0.50
2023-03-10T15:10:52.787Z,0.50
2023-03-10T15:13:23.661Z,0.45
2023-03-10T15:15:50.697Z,0.50
2023-03-10T15:18:20.167Z,0.63
2023-03-10T15:20:47.608Z,0.60
2023-03-10T15:23:18.173Z,0.50
2023-03-10T15:25:46.425Z,0.60
2023-03-10T15:28:13.667Z,0.43
2023-03-10T15:30:40.730Z,0.50
2023-03-10T15:33:07.684Z,0.50
2023-03-10T15:35:35.063Z,0.55
2023-03-10T15:38:02.730Z,0.55
2023-03-10T15:40:31.556Z,0.50
2023-03-10T15:42:59.820Z,0.50
2023-03-10T15:45:28.627Z,0.50
2023-03-10T15:47:55.826Z,0.60
2023-03-10T15:50:23.242Z,0.47
2023-03-10T15:52:56.135Z,0.50
2023-03-10T15:55:23.533Z,0.40
2023-03-10T15:57:51.222Z,0.50
2023-03-10T16:00:20.098Z,0.40
2023-03-10T16:02:48.024Z,0.63
2023-03-10T16:05:15.554Z,0.50
2023-03-10T16:07:42.475Z,0.60
2023-03-10T16:10:11.113Z,0.73
2023-03-10T16:12:37.854Z,0.47
2023-03-10T16:15:05.212Z,0.50
2023-03-10T16:17:32.078Z,0.70
2023-03-10T16:20:01.962Z,0.63
2023-03-10T16:22:28.826Z,0.50
2023-03-10T16:24:55.611Z,0.50
2023-03-10T16:27:22.380Z,0.52
2023-03-10T16:29:49.151Z,0.50
2023-03-10T16:32:17.564Z,0.80
2023-03-10T16:34:44.469Z,0.47
2023-03-10T16:37:11.220Z,0.57
2023-03-10T16:39:37.990Z,0.50
2023-03-10T16:42:05.077Z,0.50
2023-03-10T16:44:33.753Z,0.50
2023-03-10T16:47:00.389Z,0.65
2023-03-10T16:49:27.137Z,0.68
2023-03-10T16:51:53.882Z,0.77
2023-03-10T16:54:22.063Z,0.70
2023-03-10T16:56:50.987Z,0.70
2023-03-10T16:59:23.884Z,0.50
2023-03-10T17:01:51.221Z,0.88
2023-03-10T17:04:18.831Z,0.80
2023-03-10T17:06:46.039Z,1.27
2023-03-10T17:09:14.895Z,0.70
2023-03-10T17:11:46.363Z,0.60
2023-03-10T17:14:15.728Z,0.80
2023-03-10T17:16:43.544Z,0.60
2023-03-10T17:19:17.306Z,0.87
2023-03-10T17:21:46.703Z,0.52
2023-03-10T17:24:15.026Z,0.70
2023-03-10T17:26:42.088Z,0.60
2023-03-10T17:29:09.276Z,0.70
2023-03-10T17:31:36.498Z,0.50
2023-03-10T17:34:06.691Z,0.60
2023-03-10T17:36:34.069Z,0.50
2023-03-10T17:39:02.420Z,0.50
2023-03-10T17:41:30.665Z,0.70
2023-03-10T17:43:57.678Z,0.50
2023-03-10T17:46:27.257Z,0.85
2023-03-10T17:48:54.832Z,0.55
2023-03-10T17:51:25.248Z,0.60
2023-03-10T17:53:53.008Z,0.40
2023-03-10T17:56:21.793Z,0.85
2023-03-10T17:58:49.175Z,0.43
2023-03-10T18:01:19.505Z,0.50
2023-03-10T18:03:48.250Z,0.88
2023-03-10T18:06:20.943Z,0.70
2023-03-10T18:08:48.349Z,0.50
2023-03-10T18:11:15.704Z,0.50
2023-03-10T18:13:42.506Z,0.80
2023-03-10T18:16:20.695Z,0.50
2023-03-10T18:18:47.585Z,0.60
2023-03-10T18:21:16.085Z,0.68
2023-03-10T18:23:43.652Z,0.52
2023-03-10T18:26:13.394Z,0.50
2023-03-10T18:28:40.536Z,0.52
2023-03-10T18:31:09.683Z,0.53
2023-03-10T18:33:37.348Z,0.68
2023-03-10T18:36:06.509Z,0.77
2023-03-10T18:38:33.234Z,0.70
2023-03-10T18:41:01.624Z,0.40
2023-03-10T18:43:32.196Z,0.50
2023-03-10T18:45:59.005Z,0.50
2023-03-10T18:48:28.386Z,0.60
2023-03-10T18:50:57.461Z,0.50
2023-03-10T18:53:26.092Z,0.50
2023-03-10T18:55:53.374Z,0.63
2023-03-10T18:58:20.688Z,0.60
2023-03-10T19:00:47.872Z,0.60
2023-03-10T19:03:15.028Z,0.63
2023-03-10T19:05:42.374Z,0.60
2023-03-10T19:08:10.290Z,0.60
2023-03-10T19:10:39.173Z,0.60
2023-03-10T19:13:07.277Z,0.60
2023-03-10T19:15:34.544Z,0.60
2023-03-10T19:18:01.322Z,0.57
2023-03-10T19:20:28.183Z,0.50
2023-03-10T19:22:54.914Z,0.70
2023-03-10T19:25:23.831Z,0.60
2023-03-10T19:27:50.637Z,0.50
2023-03-10T19:30:22.724Z,0.68
2023-03-10T19:32:49.574Z,0.50
2023-03-10T19:35:18.371Z,0.57
2023-03-10T19:37:46.970Z,0.43
2023-03-10T19:40:17.013Z,0.60
2023-03-10T19:42:44.214Z,0.50
2023-03-10T19:45:13.139Z,0.43
2023-03-10T19:47:41.467Z,0.40
2023-03-10T19:50:09.784Z,0.52
2023-03-10T19:52:38.830Z,0.65
2023-03-10T19:55:09.881Z,0.57
2023-03-10T19:57:36.939Z,0.60
2023-03-10T20:00:07.133Z,0.77
2023-03-10T20:02:34.039Z,0.50
2023-03-10T20:05:00.874Z,0.43
2023-03-10T20:07:27.630Z,0.60
2023-03-10T20:09:54.352Z,0.70
2023-03-10T20:12:21.209Z,0.75
2023-03-10T20:14:48.410Z,0.70
2023-03-10T20:17:16.888Z,0.63
2023-03-10T20:19:45.539Z,0.60
2023-03-10T20:22:15.051Z,0.70
2023-03-10T20:24:41.933Z,0.50
2023-03-10T20:27:08.729Z,0.50
2023-03-10T20:29:35.469Z,0.50
2023-03-10T20:32:04.224Z,0.47
2023-03-10T20:34:31.691Z,0.50
2023-03-10T20:36:58.455Z,0.57
2023-03-10T20:39:25.280Z,0.50
2023-03-10T20:41:52.581Z,0.50
2023-03-10T20:44:19.449Z,0.60
2023-03-10T20:46:46.383Z,0.50
2023-03-10T20:49:13.210Z,0.50
2023-03-10T20:51:40.105Z,0.50
2023-03-10T20:54:08.292Z,0.40
2023-03-10T20:56:35.298Z,0.60
2023-03-10T20:59:02.234Z,0.50
2023-03-10T21:01:29.937Z,0.50
2023-03-10T21:03:58.414Z,0.50
2023-03-10T21:06:28.756Z,0.60
2023-03-10T21:08:55.670Z,0.57
2023-03-10T21:11:23.425Z,0.47
2023-03-10T21:13:50.824Z,0.52
2023-03-10T21:16:20.263Z,0.40
2023-03-10T21:18:47.487Z,0.60
2023-03-10T21:21:14.178Z,0.50
2023-03-10T21:23:41.874Z,0.43
2023-03-10T21:26:14.795Z,0.50
2023-03-10T21:28:42.111Z,0.47
2023-03-10T21:31:09.297Z,0.60
2023-03-10T21:33:36.173Z,0.50
2023-03-10T21:36:03.147Z,0.65
2023-03-10T21:38:30.061Z,0.50
2023-03-10T21:40:56.881Z,0.50
2023-03-10T21:43:26.371Z,0.68
2023-03-10T21:45:53.331Z,0.50
2023-03-10T21:48:20.029Z,0.35
2023-03-10T21:50:46.813Z,0.60
2023-03-10T21:53:13.634Z,0.40
2023-03-10T21:55:40.619Z,0.50
2023-03-10T21:58:07.498Z,0.70
2023-03-10T22:00:36.173Z,0.50
2023-03-10T22:03:04.888Z,0.50
2023-03-10T22:05:31.734Z,0.52
2023-03-10T22:07:59.256Z,0.60
2023-03-10T22:10:26.453Z,0.60
2023-03-10T22:12:53.160Z,0.70
2023-03-10T22:15:23.322Z,0.60
2023-03-10T22:17:50.536Z,0.50
2023-03-10T22:20:21.154Z,0.40
2023-03-10T22:22:48.847Z,0.50
2023-03-10T22:25:16.552Z,0.40
2023-03-10T22:27:45.890Z,0.50
2023-03-10T22:30:14.003Z,0.50
2023-03-10T22:32:41.039Z,0.50
2023-03-10T22:35:09.798Z,0.40
2023-03-10T22:37:40.447Z,0.40
2023-03-10T22:40:12.256Z,0.40
2023-03-10T22:42:39.745Z,0.40
2023-03-10T22:45:26.727Z,0.50
2023-03-10T22:47:58.372Z,0.40
2023-03-10T22:50:32.473Z,0.60
2023-03-10T22:53:05.662Z,0.50
2023-03-10T22:55:34.932Z,0.40
2023-03-10T22:58:06.692Z,0.40
2023-03-10T23:00:34.519Z,0.40
2023-03-10T23:03:01.953Z,0.50
2023-03-10T23:05:28.809Z,0.50
2023-03-10T23:07:56.513Z,0.43
2023-03-10T23:10:27.001Z,0.40
2023-03-10T23:12:54.671Z,0.47
2023-03-10T23:15:25.971Z,0.60
2023-03-10T23:17:54.498Z,0.55
2023-03-10T23:20:27.286Z,0.60
2023-03-10T23:22:56.346Z,0.60
2023-03-10T23:25:24.604Z,0.60
2023-03-10T23:27:51.458Z,0.50
2023-03-10T23:30:18.586Z,0.70
2023-03-10T23:32:47.553Z,0.50
2023-03-10T23:35:16.136Z,0.50
2023-03-10T23:37:42.949Z,0.55
2023-03-10T23:40:13.552Z,0.50
2023-03-10T23:42:41.261Z,0.50
2023-03-10T23:45:11.405Z,0.50
2023-03-10T23:47:39.112Z,0.50
2023-03-10T23:50:07.941Z,0.55
2023-03-10T23:52:35.183Z,0.55
2023-03-10T23:55:01.980Z,0.50
2023-03-10T23:57:28.746Z,0.52
2023-03-10T23:59:55.533Z,0.50
